Time;durP1;ratioP1;P1;durP2;ratioP2;P2;SDS_P1;SDS_P2;PMS_P1;PMS_P2;Temp;Humidity;BMP_temperature;BMP_pressure;BME280_temperature;BME280_humidity;BME280_pressure;Samples;Min_cycle;Max_cycle;Signal;HPM_P1;HPM_P2
2020/12/04 00:01:00;;;;;;;2.03;1.27;;;;;;;19.28;52.89;98166.25;4980725;28;20033;-74
2020/12/04 00:03:25;;;;;;;2.00;1.30;;;;;;;19.31;53.14;98162.63;4997431;28;20087;-74
2020/12/04 00:05:51;;;;;;;2.80;1.80;;;;;;;19.28;52.92;98162.78;5011939;28;21870;-74
2020/12/04 00:08:16;;;;;;;3.00;1.60;;;;;;;19.34;52.96;98157.22;4995812;28;20060;-74
2020/12/04 00:10:41;;;;;;;2.47;1.40;;;;;;;19.34;52.84;98148.53;4997144;28;20476;-74
2020/12/04 00:13:07;;;;;;;1.95;1.42;;;;;;;19.31;53.17;98159.16;5012551;28;20034;-74
2020/12/04 00:15:32;;;;;;;2.25;1.42;;;;;;;19.36;52.91;98155.34;5011579;28;20034;-74
2020/12/04 00:17:57;;;;;;;3.03;1.42;;;;;;;19.33;52.81;98134.56;5013595;28;20547;-74
2020/12/04 00:20:23;;;;;;;2.28;1.10;;;;;;;19.35;52.80;98134.47;4993035;28;20088;-74
2020/12/04 00:22:48;;;;;;;3.20;1.58;;;;;;;19.36;53.13;98126.53;5000250;28;20092;-74
2020/12/04 00:25:14;;;;;;;2.25;1.30;;;;;;;19.38;52.76;98119.44;5005310;28;20057;-74
2020/12/04 00:27:39;;;;;;;2.72;1.30;;;;;;;19.36;52.93;98116.06;5013616;28;20022;-74
2020/12/04 00:30:04;;;;;;;1.55;1.00;;;;;;;19.36;52.95;98110.81;4996202;28;20118;-74
2020/12/04 00:32:30;;;;;;;1.83;1.23;;;;;;;19.37;52.82;98112.50;5013598;28;20112;-75
2020/12/04 00:34:55;;;;;;;1.63;0.88;;;;;;;19.38;52.90;98108.13;5007630;28;20481;-74
2020/12/04 00:37:21;;;;;;;1.83;1.40;;;;;;;19.31;52.85;98094.50;5014549;28;20472;-74
2020/12/04 00:39:46;;;;;;;2.08;1.10;;;;;;;19.40;52.92;98098.41;5012007;28;20040;-74
2020/12/04 00:42:12;;;;;;;2.15;1.00;;;;;;;19.38;52.92;98098.47;4976778;28;20034;-74
2020/12/04 00:44:37;;;;;;;2.00;1.33;;;;;;;19.33;52.75;98081.31;4997183;28;20422;-74
2020/12/04 00:47:02;;;;;;;3.10;1.50;;;;;;;19.25;52.81;98060.75;5012270;28;20056;-74
2020/12/04 00:49:28;;;;;;;2.10;1.33;;;;;;;19.38;52.76;98077.50;5013324;28;20034;-76
2020/12/04 00:51:54;;;;;;;2.20;1.30;;;;;;;19.36;52.77;98074.13;5003732;28;20077;-76
2020/12/04 00:54:19;;;;;;;1.88;1.00;;;;;;;19.40;52.88;98067.81;4994509;28;20035;-76
2020/12/04 00:56:45;;;;;;;1.52;1.02;;;;;;;19.36;52.86;98047.91;4971966;28;20093;-76
2020/12/04 00:59:11;;;;;;;2.47;1.20;;;;;;;19.36;52.75;98055.78;5005743;28;20035;-76
2020/12/04 01:01:36;;;;;;;2.03;0.90;;;;;;;19.42;52.62;98054.63;5010654;28;20040;-76
2020/12/04 01:04:01;;;;;;;1.58;1.02;;;;;;;19.38;52.79;98032.13;4997291;28;20036;-76
2020/12/04 01:06:27;;;;;;;2.67;0.80;;;;;;;19.30;52.70;98029.06;5012169;28;20032;-76
2020/12/04 01:08:52;;;;;;;1.77;0.95;;;;;;;19.41;52.83;98032.81;4979412;28;20042;-76
2020/12/04 01:11:21;;;;;;;1.63;1.02;;;;;;;19.44;52.69;98032.66;4996361;28;20049;-76
2020/12/04 01:13:48;;;;;;;2.75;1.00;;;;;;;19.42;52.67;98034.50;5012094;28;20033;-76
2020/12/04 01:16:13;;;;;;;1.33;0.88;;;;;;;19.42;52.78;98045.00;4996211;28;20084;-76
2020/12/04 01:18:40;;;;;;;1.40;0.80;;;;;;;19.45;52.76;98031.72;5008805;28;20030;-76
2020/12/04 01:21:06;;;;;;;1.75;0.75;;;;;;;19.38;52.67;98016.41;5011665;28;20038;-76
2020/12/04 01:23:32;;;;;;;1.30;0.80;;;;;;;19.43;52.85;98024.88;5008446;28;20056;-76
2020/12/04 01:25:57;;;;;;;1.60;0.93;;;;;;;19.47;52.65;98014.16;5017294;28;20034;-76
2020/12/04 01:28:23;;;;;;;1.17;0.85;;;;;;;19.43;52.63;98010.00;4996512;28;20116;-76
2020/12/04 01:30:48;;;;;;;1.35;0.95;;;;;;;19.42;52.63;98010.91;5009870;28;20473;-76
2020/12/04 01:33:14;;;;;;;1.02;0.65;;;;;;;19.45;52.67;98008.16;5012531;28;20046;-76
2020/12/04 01:35:39;;;;;;;1.75;0.82;;;;;;;19.46;52.62;98001.97;4974807;28;20555;-76
2020/12/04 01:38:05;;;;;;;0.80;0.70;;;;;;;19.41;52.74;97988.25;5007826;28;20054;-76
2020/12/04 01:40:33;;;;;;;1.02;0.52;;;;;;;19.45;52.64;97989.78;5011217;28;20036;-76
2020/12/04 01:42:59;;;;;;;1.23;0.70;;;;;;;19.41;52.51;97985.63;4979548;28;20057;-76
2020/12/04 01:45:25;;;;;;;1.90;0.73;;;;;;;19.42;52.63;97983.88;4995712;28;20034;-76
2020/12/04 01:47:52;;;;;;;1.30;0.70;;;;;;;19.47;52.70;97969.59;4994322;28;20026;-76
2020/12/04 01:50:18;;;;;;;1.77;0.82;;;;;;;19.45;52.69;97963.59;5010361;28;20082;-76
2020/12/04 01:52:43;;;;;;;1.35;0.60;;;;;;;19.43;52.60;97968.06;5009053;28;20452;-76
2020/12/04 01:55:09;;;;;;;1.58;0.70;;;;;;;19.46;52.61;97960.03;5009472;28;20018;-76
2020/12/04 01:57:43;;;;;;;1.13;0.90;;;;;;;19.46;52.56;97960.03;4997653;28;20049;-76
2020/12/04 02:00:08;;;;;;;;;;;;;;;19.44;52.60;97954.03;5001778;28;20018;-76
2020/12/04 02:02:34;;;;;;;1.50;0.70;;;;;;;19.48;52.66;97959.94;5011857;28;19917;-76
2020/12/04 02:04:59;;;;;;;1.85;0.88;;;;;;;19.50;52.63;97947.63;5012023;28;20087;-76
2020/12/04 02:07:40;;;;;;;1.48;0.80;;;;;;;19.46;52.61;97938.22;5010250;28;20485;-76
2020/12/04 02:10:12;;;;;;;0.98;0.55;;;;;;;19.43;52.73;97941.84;5010374;28;20427;-76
2020/12/04 02:12:39;;;;;;;1.15;0.70;;;;;;;19.51;52.55;97946.69;5010030;28;20384;-76
2020/12/04 02:15:05;;;;;;;0.82;0.50;;;;;;;19.46;52.67;97939.06;4995156;28;20041;-76
2020/12/04 02:17:33;;;;;;;1.10;0.80;;;;;;;19.45;52.81;97932.16;4995435;28;20030;-76
2020/12/04 02:19:59;;;;;;;1.02;0.63;;;;;;;19.49;52.51;97930.22;5008304;28;20430;-76
2020/12/04 02:22:25;;;;;;;1.27;0.60;;;;;;;19.47;52.85;97925.03;5010897;28;20444;-76
2020/12/04 02:24:52;;;;;;;1.27;0.73;;;;;;;19.49;52.65;97928.44;5009904;28;20029;-76
2020/12/04 02:27:18;;;;;;;1.45;0.73;;;;;;;19.48;52.61;97924.09;4995238;28;20034;-76
2020/12/04 02:29:43;;;;;;;1.15;0.80;;;;;;;19.46;52.48;97907.63;5007311;28;20531;-76
2020/12/04 02:32:17;;;;;;;1.10;0.55;;;;;;;19.47;52.67;97911.94;4985603;28;20036;-76
2020/12/04 02:34:43;;;;;;;1.00;0.50;;;;;;;19.52;52.52;97902.06;5002587;28;20092;-76
2020/12/04 02:37:09;;;;;;;0.82;0.57;;;;;;;19.47;52.86;97893.59;5011113;28;20042;-76
2020/12/04 02:39:35;;;;;;;1.35;0.57;;;;;;;19.48;52.59;97889.16;5010087;28;20033;-76
2020/12/04 02:42:01;;;;;;;3.10;0.90;;;;;;;19.52;52.33;97867.16;5008155;28;20062;-76
2020/12/04 02:44:26;;;;;;;0.80;0.40;;;;;;;19.51;52.59;97881.19;5002698;28;20050;-76
2020/12/04 02:46:53;;;;;;;1.42;0.70;;;;;;;19.46;52.61;97860.47;4992077;28;20092;-76
2020/12/04 02:49:20;;;;;;;0.65;0.57;;;;;;;19.52;52.43;97868.00;5006480;28;20121;-76
2020/12/04 02:51:50;;;;;;;1.10;0.80;;;;;;;19.51;52.63;97858.44;4988940;28;20133;-76
2020/12/04 02:54:16;;;;;;;1.42;0.60;;;;;;;19.45;52.73;97858.75;5004725;28;20037;-76
2020/12/04 02:56:42;;;;;;;0.90;0.60;;;;;;;19.51;52.46;97854.97;5001183;28;20392;-76
2020/12/04 02:59:09;;;;;;;0.95;0.60;;;;;;;19.50;52.63;97859.38;5001700;28;20061;-75
2020/12/04 03:01:34;;;;;;;2.03;0.63;;;;;;;19.49;52.62;97846.34;5009088;28;20030;-76
2020/12/04 03:03:59;;;;;;;1.20;0.80;;;;;;;19.52;52.51;97844.41;5002016;28;20018;-76
2020/12/04 03:06:25;;;;;;;0.95;0.50;;;;;;;19.51;52.46;97840.09;4988392;28;22673;-76
2020/12/04 03:08:51;;;;;;;0.52;0.40;;;;;;;19.45;52.59;97822.06;4985965;28;20044;-76
2020/12/04 03:11:21;;;;;;;0.98;0.50;;;;;;;19.48;52.14;97810.53;4988161;28;20240;-76
2020/12/04 03:13:46;;;;;;;0.82;0.52;;;;;;;19.52;52.52;97809.47;5001867;28;20056;-76
2020/12/04 03:16:12;;;;;;;0.80;0.60;;;;;;;19.49;52.63;97807.03;5003980;28;20064;-76
2020/12/04 03:18:37;;;;;;;0.80;0.50;;;;;;;19.52;52.51;97807.72;5005122;28;20041;-76
2020/12/04 03:21:02;;;;;;;0.77;0.50;;;;;;;19.48;52.64;97790.44;5009359;28;20040;-76
2020/12/04 03:23:28;;;;;;;0.70;0.63;;;;;;;19.49;52.71;97791.31;5010396;28;20045;-76
2020/12/04 03:25:55;;;;;;;1.63;0.70;;;;;;;19.51;52.51;97789.44;4994345;28;20028;-76
2020/12/04 03:28:21;;;;;;;1.10;0.70;;;;;;;19.53;52.44;97796.28;5010839;28;20402;-76
2020/12/04 03:30:46;;;;;;;0.70;0.60;;;;;;;19.47;52.52;97780.06;5008883;28;20041;-76
2020/12/04 03:33:11;;;;;;;0.98;0.60;;;;;;;19.45;52.52;97785.38;4996875;28;20026;-76
2020/12/04 03:35:37;;;;;;;0.90;0.50;;;;;;;19.52;52.34;97786.75;4986067;28;20062;-76
2020/12/04 03:38:02;;;;;;;1.30;0.60;;;;;;;19.49;52.51;97788.69;5004537;28;20065;-77
2020/12/04 03:40:27;;;;;;;0.40;0.40;;;;;;;19.49;52.56;97779.03;5004852;28;20104;-76
2020/12/04 03:42:52;;;;;;;0.75;0.50;;;;;;;19.55;52.43;97777.88;4999563;28;20061;-76
2020/12/04 03:45:18;;;;;;;0.95;0.50;;;;;;;19.47;52.51;97767.81;4986339;28;20065;-76
2020/12/04 03:47:43;;;;;;;0.93;0.43;;;;;;;19.48;52.48;97758.13;5005273;28;20034;-76
2020/12/04 03:50:08;;;;;;;0.25;0.25;;;;;;;19.55;52.88;97764.75;5000695;28;20059;-76
2020/12/04 03:52:34;;;;;;;1.92;1.02;;;;;;;19.53;52.58;97754.34;5002473;28;20036;-76
2020/12/04 03:54:59;;;;;;;0.80;0.50;;;;;;;19.48;52.48;97753.72;5011852;28;20042;-77
2020/12/04 03:57:24;;;;;;;0.70;0.43;;;;;;;19.50;52.38;97753.69;5001757;28;20032;-76
2020/12/04 03:59:50;;;;;;;0.35;0.32;;;;;;;19.54;52.37;97753.44;4992557;28;20026;-76
2020/12/04 04:02:15;;;;;;;1.13;0.43;;;;;;;19.46;52.36;97739.91;4988691;28;20030;-75
2020/12/04 04:04:41;;;;;;;0.35;0.35;;;;;;;19.52;52.42;97744.81;4979676;28;20118;-76
2020/12/04 04:07:06;;;;;;;0.52;0.28;;;;;;;19.54;52.44;97752.59;4997196;28;20030;-76
2020/12/04 04:09:31;;;;;;;0.70;0.50;;;;;;;19.53;52.48;97745.66;5014369;28;20065;-76
2020/12/04 04:11:57;;;;;;;1.20;0.57;;;;;;;19.51;52.50;97737.88;5013756;28;20451;-76
2020/12/04 04:14:22;;;;;;;0.57;0.40;;;;;;;19.52;52.38;97734.31;5011698;28;20037;-75
2020/12/04 04:16:47;;;;;;;0.93;0.30;;;;;;;19.53;52.29;97736.00;5001832;28;20029;-76
2020/12/04 04:19:13;;;;;;;0.88;0.55;;;;;;;19.54;52.43;97724.59;5013597;28;20387;-76
2020/12/04 04:21:39;;;;;;;0.70;0.32;;;;;;;19.56;52.40;97735.84;5012954;28;20021;-76
2020/12/04 04:24:06;;;;;;;0.90;0.70;;;;;;;19.53;52.25;97725.53;5018218;28;20032;-76
2020/12/04 04:26:31;;;;;;;0.57;0.40;;;;;;;19.52;52.30;97723.84;5010374;28;20468;-75
2020/12/04 04:28:57;;;;;;;0.55;0.47;;;;;;;19.49;52.47;97710.91;4997382;28;20037;-75
2020/12/04 04:31:22;;;;;;;0.57;0.40;;;;;;;19.53;52.53;97728.16;4992651;28;20034;-75
2020/12/04 04:33:47;;;;;;;0.30;0.30;;;;;;;19.55;52.54;97721.03;4971203;28;20030;-75
2020/12/04 04:36:13;;;;;;;0.98;0.50;;;;;;;19.51;52.24;97702.97;4977947;28;20484;-74
2020/12/04 04:38:38;;;;;;;0.70;0.40;;;;;;;19.52;52.30;97710.72;4996028;28;20096;-74
2020/12/04 04:41:04;;;;;;;0.95;0.47;;;;;;;19.53;52.51;97712.41;4995414;28;20029;-75
2020/12/04 04:43:29;;;;;;;0.45;0.40;;;;;;;19.56;52.30;97711.41;4987709;28;20025;-75
2020/12/04 04:46:12;;;;;;;0.65;0.45;;;;;;;19.56;52.28;97724.50;4994452;28;20034;-75
2020/12/04 04:48:38;;;;;;;0.45;0.40;;;;;;;19.52;52.37;97718.59;5008342;28;20369;-74
2020/12/04 04:51:04;;;;;;;0.98;0.50;;;;;;;19.58;52.16;97720.88;4979231;28;20053;-75
2020/12/04 04:53:31;;;;;;;0.40;0.30;;;;;;;19.50;52.18;97720.47;4997050;28;20030;-74
2020/12/04 04:55:57;;;;;;;0.77;0.50;;;;;;;19.52;52.36;97713.34;5011570;28;20365;-74
2020/12/04 04:58:25;;;;;;;0.55;0.40;;;;;;;19.55;52.16;97718.44;4995758;28;20080;-75
2020/12/04 05:00:51;;;;;;;0.40;0.30;;;;;;;19.51;52.11;97709.03;5007064;28;20030;-75
2020/12/04 05:03:16;;;;;;;0.73;0.43;;;;;;;19.56;52.40;97706.16;4980309;28;20037;-75
2020/12/04 05:05:49;;;;;;;0.43;0.38;;;;;;;19.60;52.37;97705.88;5013178;28;20084;-74
2020/12/04 05:08:17;;;;;;;1.38;0.57;;;;;;;19.51;52.16;97695.94;5020563;28;20565;-75
2020/12/04 05:10:43;;;;;;;0.52;0.35;;;;;;;19.54;52.15;97708.88;5013176;28;20429;-74
2020/12/04 05:13:09;;;;;;;0.63;0.40;;;;;;;19.56;52.13;97711.41;5013777;28;20026;-74
2020/12/04 05:15:35;;;;;;;0.50;0.43;;;;;;;19.53;52.20;97714.19;5012686;28;20030;-74
2020/12/04 05:18:01;;;;;;;0.50;0.40;;;;;;;19.53;52.22;97707.19;5011172;28;20028;-74
2020/12/04 05:20:27;;;;;;;0.85;0.43;;;;;;;19.57;52.19;97718.34;5014527;28;20034;-75
2020/12/04 05:22:56;;;;;;;1.10;0.30;;;;;;;19.57;52.14;97707.84;5014155;28;20432;-75
2020/12/04 05:25:23;;;;;;;0.50;0.35;;;;;;;19.53;52.21;97707.19;5015468;28;20055;-75
2020/12/04 05:27:48;;;;;;;0.47;0.35;;;;;;;19.58;52.20;97715.63;4994729;28;20030;-75
2020/12/04 05:30:26;;;;;;;0.40;0.40;;;;;;;19.57;52.17;97713.94;5011204;28;20511;-75
2020/12/04 05:33:00;;;;;;;0.60;0.30;;;;;;;19.56;52.16;97704.38;4991660;28;20041;-74
2020/12/04 05:35:25;;;;;;;0.52;0.30;;;;;;;19.57;52.53;97700.00;4994875;28;20094;-74
2020/12/04 05:38:08;;;;;;;0.45;0.40;;;;;;;19.57;52.17;97697.38;5020962;28;20128;-74
2020/12/04 05:40:36;;;;;;;1.08;0.20;;;;;;;19.56;52.12;97698.31;5010950;28;20083;-75
2020/12/04 05:43:03;;;;;;;0.65;0.50;;;;;;;19.53;52.21;97693.22;4993606;28;20108;-74
2020/12/04 05:45:29;;;;;;;2.45;0.40;;;;;;;19.44;52.17;97676.25;5009101;28;20029;-75
2020/12/04 05:47:55;;;;;;;0.30;0.30;;;;;;;19.47;52.48;97677.84;4992080;28;20034;-78
2020/12/04 05:50:21;;;;;;;2.83;0.30;;;;;;;19.51;52.35;97690.69;4985955;28;20077;-76
2020/12/04 05:52:48;;;;;;;1.15;0.50;;;;;;;19.48;52.42;97687.38;4993486;28;20033;-75
2020/12/04 05:55:15;;;;;;;0.60;0.40;;;;;;;19.49;52.39;97689.09;5008686;28;21384;-75
2020/12/04 05:57:54;;;;;;;1.58;0.40;;;;;;;19.46;52.25;97691.88;5013731;28;20030;-75
2020/12/04 06:00:21;;;;;;;0.32;0.30;;;;;;;19.43;52.04;97690.28;5010236;28;20037;-75
2020/12/04 06:03:01;;;;;;;0.75;0.35;;;;;;;19.45;52.44;97695.44;5003622;28;20392;-75
2020/12/04 06:05:28;;;;;;;1.02;0.40;;;;;;;19.41;52.62;97696.53;5010901;28;20026;-75
2020/12/04 06:08:04;;;;;;;0.80;0.45;;;;;;;19.42;52.48;97709.56;4993882;28;20041;-75
2020/12/04 06:10:31;;;;;;;0.47;0.30;;;;;;;19.39;52.47;97694.00;4997570;28;20043;-75
2020/12/04 06:12:57;;;;;;;3.95;0.80;;;;;;;19.40;52.46;97694.84;4996606;28;20115;-76
2020/12/04 06:15:31;;;;;;;4.38;0.90;;;;;;;19.38;52.57;97688.84;5009062;28;20060;-78
2020/12/04 06:18:11;;;;;;;1.50;1.08;;;;;;;19.34;52.37;97687.38;5017410;28;20034;-74
2020/12/04 06:20:41;;;;;;;3.00;0.80;;;;;;;19.37;52.79;97700.25;4996044;28;20041;-75
2020/12/04 06:23:12;;;;;;;4.43;2.47;;;;;;;19.37;52.55;97701.09;5001369;28;20033;-75
2020/12/04 06:25:53;;;;;;;7.80;1.80;;;;;;;19.36;52.68;97719.53;5000845;28;20461;-76
2020/12/04 06:28:21;;;;;;;3.88;1.48;;;;;;;19.34;52.74;97717.03;5009625;28;20037;-75
2020/12/04 06:31:10;;;;;;;2.88;1.75;;;;;;;19.33;52.78;97715.34;5000412;28;20027;-75
2020/12/04 06:33:37;;;;;;;4.30;1.38;;;;;;;19.32;52.36;97724.13;5010000;28;20034;-75
2020/12/04 06:36:04;;;;;;;6.55;2.17;;;;;;;19.30;52.69;97715.50;4998491;28;20033;-76
2020/12/04 06:38:33;;;;;;;5.43;1.92;;;;;;;19.30;52.71;97715.50;5007292;28;20034;-77
2020/12/04 06:41:17;;;;;;;3.05;1.40;;;;;;;19.29;52.89;97716.44;5002315;28;20480;-76
2020/12/04 06:43:44;;;;;;;5.22;1.63;;;;;;;19.24;52.67;97700.13;5008563;28;20041;-77
2020/12/04 06:46:30;;;;;;;4.05;1.45;;;;;;;19.25;52.54;97707.91;4992019;28;20400;-76
2020/12/04 06:49:11;;;;;;;4.35;1.42;;;;;;;19.25;52.68;97701.81;5005560;28;20472;-76
2020/12/04 06:51:38;;;;;;;3.17;1.67;;;;;;;19.25;52.67;97709.69;5008204;28;20050;-76
2020/12/04 06:54:07;;;;;;;5.97;1.83;;;;;;;19.24;52.62;97710.59;5001269;28;20026;-77
2020/12/04 06:56:34;;;;;;;3.30;1.50;;;;;;;19.24;52.62;97710.59;5003968;28;20026;-77
2020/12/04 06:58:59;;;;;;;4.25;1.80;;;;;;;19.20;52.40;97709.13;5000648;28;20509;-76
2020/12/04 07:01:24;;;;;;;3.15;1.58;;;;;;;19.19;52.56;97724.00;4996767;28;20030;-76
2020/12/04 07:03:54;;;;;;;5.18;1.30;;;;;;;19.22;52.35;97730.81;4992639;28;20588;-76
2020/12/04 07:06:21;;;;;;;4.35;1.67;;;;;;;19.22;52.36;97738.66;4985522;28;20519;-76
2020/12/04 07:09:04;;;;;;;4.35;1.60;;;;;;;19.21;52.50;97742.25;5009656;28;20034;-77
2020/12/04 07:11:33;;;;;;;2.25;1.27;;;;;;;19.19;52.33;97739.72;4988314;28;20069;-75
2020/12/04 07:13:59;;;;;;;3.40;1.60;;;;;;;19.19;52.17;97751.97;4997878;28;20436;-77
2020/12/04 07:16:25;;;;;;;3.22;1.65;;;;;;;19.20;52.26;97759.72;5004530;28;20022;-76
2020/12/04 07:18:53;;;;;;;5.00;1.80;;;;;;;19.18;52.38;97764.22;4995466;28;20402;-77
2020/12/04 07:21:25;;;;;;;2.47;1.30;;;;;;;19.19;52.31;97759.81;4994119;28;20033;-77
2020/12/04 07:23:53;;;;;;;3.13;1.55;;;;;;;19.17;52.37;97759.91;5018675;28;20025;-76
2020/12/04 07:26:19;;;;;;;2.83;1.60;;;;;;;19.18;52.70;97774.69;5016545;28;20029;-76
2020/12/04 07:28:45;;;;;;;2.20;1.40;;;;;;;19.18;52.08;97779.09;5016510;28;20057;-77
2020/12/04 07:31:17;;;;;;;3.97;1.65;;;;;;;19.14;52.21;97783.63;5014055;28;20443;-77
2020/12/04 07:33:56;;;;;;;2.20;1.40;;;;;;;19.14;51.91;97793.28;5023119;28;20017;-77
2020/12/04 07:36:23;;;;;;;3.70;2.08;;;;;;;19.14;51.87;97785.41;5032079;28;20484;-77
2020/12/04 07:38:53;;;;;;;2.05;1.10;;;;;;;19.15;51.81;97803.66;5016062;28;20029;-76
2020/12/04 07:41:36;;;;;;;2.78;1.83;;;;;;;19.14;52.22;97806.38;5015062;28;20029;-75
2020/12/04 07:44:06;;;;;;;4.37;1.70;;;;;;;19.15;52.49;97808.91;5004628;28;20026;-75
2020/12/04 07:46:32;;;;;;;2.22;1.35;;;;;;;19.14;52.15;97804.59;5008957;28;20034;-75
2020/12/04 07:49:05;;;;;;;5.95;1.92;;;;;;;19.28;51.99;97827.41;5005278;28;20069;-75
2020/12/04 07:51:33;;;;;;;2.38;1.17;;;;;;;19.25;51.88;97817.94;5001012;28;20045;-75
2020/12/04 07:53:59;;;;;;;4.53;1.63;;;;;;;19.28;51.94;97830.88;5005400;28;20040;-75
2020/12/04 07:56:26;;;;;;;3.78;1.30;;;;;;;19.35;51.84;97822.66;5001826;28;20030;-75
2020/12/04 07:59:06;;;;;;;3.50;1.00;;;;;;;19.30;51.58;97825.56;5010923;28;20033;-75
2020/12/04 08:01:42;;;;;;;4.55;1.52;;;;;;;19.34;51.87;97832.31;5009686;28;20026;-75
2020/12/04 08:04:09;;;;;;;2.42;1.20;;;;;;;19.39;51.55;97838.13;5013674;28;20546;-75
2020/12/04 08:06:35;;;;;;;5.22;1.35;;;;;;;19.40;51.67;97849.44;4992798;28;20060;-75
2020/12/04 08:09:13;;;;;;;6.80;1.17;;;;;;;19.36;51.74;97845.31;5002952;28;20132;-76
2020/12/04 08:11:47;;;;;;;3.38;1.35;;;;;;;19.45;51.70;97861.38;5012255;28;20468;-75
2020/12/04 08:14:21;;;;;;;1.73;1.10;;;;;;;19.44;51.73;97875.41;5011715;28;20077;-76
2020/12/04 08:16:47;;;;;;;3.13;1.40;;;;;;;19.37;51.63;97863.56;5004170;28;20026;-76
2020/12/04 08:19:14;;;;;;;3.10;1.40;;;;;;;19.47;51.39;97863.91;5002981;28;20048;-76
2020/12/04 08:21:59;;;;;;;3.75;1.33;;;;;;;19.41;51.53;97865.09;4993902;28;20535;-76
2020/12/04 08:24:31;;;;;;;3.17;1.10;;;;;;;19.44;51.58;97882.44;4985779;28;20032;-76
2020/12/04 08:27:08;;;;;;;1.48;0.73;;;;;;;19.50;51.40;97885.56;5014303;28;20157;-76
2020/12/04 08:29:35;;;;;;;1.73;0.85;;;;;;;19.50;51.41;97905.69;5009945;28;20109;-76
2020/12/04 08:32:04;;;;;;;1.58;1.00;;;;;;;19.48;51.56;97920.63;5009038;28;20042;-75
2020/12/04 08:34:29;;;;;;;2.80;0.80;;;;;;;19.51;51.42;97930.97;5004526;28;20056;-76
2020/12/04 08:37:04;;;;;;;2.63;1.20;;;;;;;19.48;51.52;97929.31;4995825;28;20484;-76
2020/12/04 08:39:34;;;;;;;1.83;0.80;;;;;;;19.46;51.22;97943.47;4995491;28;20113;-76
2020/12/04 08:42:20;;;;;;;1.35;0.95;;;;;;;19.49;51.31;97945.94;5004125;28;20030;-76
2020/12/04 08:45:07;;;;;;;1.58;0.90;;;;;;;19.52;51.26;97970.22;4997695;28;20026;-75
2020/12/04 08:47:38;;;;;;;4.25;1.73;;;;;;;19.49;51.29;97962.50;5005422;28;20120;-76
2020/12/04 08:50:19;;;;;;;1.95;0.80;;;;;;;19.54;51.37;97975.38;5009091;28;20042;-76
2020/12/04 08:52:53;;;;;;;1.83;0.85;;;;;;;19.53;51.06;97985.00;5004226;28;20161;-76
2020/12/04 08:55:26;;;;;;;2.03;1.00;;;;;;;19.50;51.37;97985.16;5011585;28;20030;-76
2020/12/04 08:57:53;;;;;;;1.85;0.68;;;;;;;19.56;51.16;97982.22;5011575;28;20037;-76
2020/12/04 09:00:21;;;;;;;1.02;0.65;;;;;;;19.55;50.89;97984.94;5006568;28;20469;-76
2020/12/04 09:02:47;;;;;;;1.63;0.68;;;;;;;19.52;51.37;97993.78;5012441;28;20377;-76
2020/12/04 09:05:15;;;;;;;0.82;0.50;;;;;;;19.53;51.41;97985.00;5010197;28;20027;-76
2020/12/04 09:07:40;;;;;;;1.35;0.60;;;;;;;19.57;51.18;97986.53;5005383;28;20026;-76
2020/12/04 09:10:08;;;;;;;1.60;0.70;;;;;;;19.55;51.19;97993.63;5012716;28;20030;-76
2020/12/04 09:12:34;;;;;;;2.05;0.80;;;;;;;19.60;51.23;98007.31;4995004;28;20038;-76
2020/12/04 09:14:59;;;;;;;0.82;0.57;;;;;;;19.58;50.91;97993.47;5014134;28;20076;-76
2020/12/04 09:17:28;;;;;;;2.05;0.70;;;;;;;19.53;51.06;98000.75;5006572;28;20029;-76
2020/12/04 09:19:55;;;;;;;0.88;0.50;;;;;;;19.57;51.19;98004.91;5011578;28;20030;-76
2020/12/04 09:22:21;;;;;;;2.13;0.60;;;;;;;19.56;50.89;98000.56;4996438;28;20041;-76
2020/12/04 09:24:46;;;;;;;1.05;0.57;;;;;;;19.56;50.73;98015.47;4982762;28;20022;-75
2020/12/04 09:27:12;;;;;;;1.75;0.85;;;;;;;19.52;50.98;98006.91;5011515;28;20034;-75
2020/12/04 09:29:37;;;;;;;0.95;0.60;;;;;;;19.53;51.06;98021.69;5012920;28;20036;-75
2020/12/04 09:32:14;;;;;;;0.93;0.50;;;;;;;19.47;50.64;98019.41;5012475;28;20392;-75
2020/12/04 09:34:41;;;;;;;2.00;0.55;;;;;;;19.46;50.80;98029.97;4996532;28;20125;-75
2020/12/04 09:37:29;;;;;;;1.48;0.50;;;;;;;19.44;50.83;98027.41;5008810;28;20120;-76
2020/12/04 09:40:00;;;;;;;0.77;0.47;;;;;;;19.39;50.83;98028.56;4995869;28;20037;-75
2020/12/04 09:42:27;;;;;;;1.65;0.70;;;;;;;19.40;51.04;98049.47;5004080;28;20032;-76
2020/12/04 09:44:53;;;;;;;1.40;0.60;;;;;;;19.40;51.12;98049.47;5013569;28;20026;-75
2020/12/04 09:47:20;;;;;;;2.63;0.90;;;;;;;19.37;50.96;98052.25;5010048;28;20061;-75
2020/12/04 09:49:47;;;;;;;2.03;0.57;;;;;;;19.42;51.05;98055.47;5011408;28;20476;-75
2020/12/04 09:52:14;;;;;;;1.00;0.50;;;;;;;19.43;50.96;98072.91;4994057;28;20034;-75
2020/12/04 09:54:41;;;;;;;3.42;0.70;;;;;;;19.41;51.23;98069.50;5004270;28;20027;-75
2020/12/04 09:57:09;;;;;;;1.52;0.70;;;;;;;19.37;51.15;98069.72;4977281;28;20362;-75
2020/12/04 09:59:35;;;;;;;0.63;0.40;;;;;;;19.38;50.89;98087.16;5004959;28;22518;-75
2020/12/04 10:02:02;;;;;;;0.80;0.60;;;;;;;19.35;51.13;98096.00;5011733;28;20061;-75
2020/12/04 10:04:27;;;;;;;0.52;0.40;;;;;;;19.33;50.83;98091.81;4994500;28;20034;-75
2020/12/04 10:06:54;;;;;;;1.02;0.50;;;;;;;19.30;51.20;98090.19;5005371;28;20503;-74
2020/12/04 10:09:20;;;;;;;1.30;0.50;;;;;;;19.31;51.17;98091.88;5005321;28;20491;-75
2020/12/04 10:11:46;;;;;;;0.43;0.40;;;;;;;19.26;50.88;98086.00;4982349;28;20427;-75
2020/12/04 10:14:13;;;;;;;1.45;0.50;;;;;;;19.25;50.89;98097.41;4995818;28;20041;-75
2020/12/04 10:16:40;;;;;;;0.75;0.40;;;;;;;19.30;50.91;98102.44;4996103;28;20076;-75
2020/12/04 10:19:05;;;;;;;1.40;0.45;;;;;;;19.27;50.71;98093.81;4987952;28;20450;-75
2020/12/04 10:21:36;;;;;;;1.15;0.70;;;;;;;19.27;50.45;98098.19;4996272;28;20033;-76
2020/12/04 10:24:03;;;;;;;1.30;0.50;;;;;;;19.24;50.78;98104.44;5011824;28;20018;-76
2020/12/04 10:26:29;;;;;;;1.13;0.50;;;;;;;19.26;50.76;98099.13;5021185;28;20037;-75
2020/12/04 10:28:55;;;;;;;0.88;0.55;;;;;;;19.23;50.51;98102.72;5022965;28;20038;-76
2020/12/04 10:31:21;;;;;;;0.98;0.55;;;;;;;19.24;50.76;98109.66;5014712;28;20125;-76
2020/12/04 10:33:46;;;;;;;1.00;0.40;;;;;;;19.22;50.69;98122.00;5003115;28;20369;-76
2020/12/04 10:36:13;;;;;;;1.02;0.55;;;;;;;19.16;50.62;98111.00;4990408;28;20117;-76
2020/12/04 10:38:38;;;;;;;1.25;0.40;;;;;;;19.24;50.56;98145.50;4998334;28;20121;-76
2020/12/04 10:41:04;;;;;;;2.05;0.70;;;;;;;19.23;50.51;98138.56;5008517;28;20437;-76
2020/12/04 10:43:29;;;;;;;0.65;0.60;;;;;;;19.17;50.59;98142.34;5009591;28;20034;-76
2020/12/04 10:45:54;;;;;;;2.25;0.68;;;;;;;19.16;50.50;98126.72;5013839;28;20041;-76
2020/12/04 10:48:23;;;;;;;1.15;0.50;;;;;;;19.18;50.49;98130.09;4997864;28;20204;-76
2020/12/04 10:50:48;;;;;;;1.90;0.60;;;;;;;19.20;50.52;98143.97;4998168;28;20057;-77
2020/12/04 10:53:14;;;;;;;1.13;0.57;;;;;;;19.16;50.36;98145.06;4998758;28;20034;-77
2020/12/04 10:55:44;;;;;;;0.47;0.40;;;;;;;19.19;50.54;98147.53;5008733;28;20676;-76
2020/12/04 10:58:12;;;;;;;0.90;0.50;;;;;;;19.12;50.48;98148.75;5013064;28;20029;-76
2020/12/04 11:00:38;;;;;;;0.68;0.40;;;;;;;19.15;50.23;98156.44;5004407;28;20030;-76
2020/12/04 11:03:13;;;;;;;1.38;0.80;;;;;;;19.15;50.36;98166.94;5006157;28;20029;-76
2020/12/04 11:05:41;;;;;;;0.75;0.50;;;;;;;19.17;50.38;98170.31;4993048;28;20022;-76
2020/12/04 11:08:06;;;;;;;0.70;0.52;;;;;;;19.13;50.23;98164.38;5021726;28;20444;-76
2020/12/04 11:10:32;;;;;;;1.08;0.60;;;;;;;19.14;50.27;98173.09;5010490;28;20057;-76
2020/12/04 11:12:57;;;;;;;0.22;0.13;;;;;;;19.14;50.18;98183.56;5011896;28;20111;-76
2020/12/04 11:15:23;;;;;;;0.57;0.38;;;;;;;19.13;50.23;98179.25;5010377;28;20039;-76
2020/12/04 11:17:48;;;;;;;1.40;0.43;;;;;;;19.16;50.28;98181.72;4977583;28;20384;-76
2020/12/04 11:20:15;;;;;;;0.55;0.40;;;;;;;19.23;50.16;98196.19;4998647;28;20042;-75
2020/12/04 11:22:42;;;;;;;1.38;0.50;;;;;;;19.25;49.98;98186.50;5006615;28;20030;-76
2020/12/04 11:25:08;;;;;;;1.02;0.47;;;;;;;19.24;50.24;98187.41;4988131;28;20420;-74
2020/12/04 11:27:34;;;;;;;1.05;0.50;;;;;;;19.31;50.61;98193.22;5011843;28;20314;-74
2020/12/04 11:29:59;;;;;;;1.17;0.45;;;;;;;19.38;49.99;98195.44;4981869;28;20041;-74
2020/12/04 11:32:25;;;;;;;1.00;0.63;;;;;;;19.32;49.97;98195.75;5005662;28;20042;-74
2020/12/04 11:34:50;;;;;;;0.63;0.47;;;;;;;19.30;50.00;98189.75;4980684;28;20444;-74
2020/12/04 11:37:15;;;;;;;0.50;0.50;;;;;;;19.35;50.29;98192.13;5000246;28;20029;-74